Time;durP1;ratioP1;P1;durP2;ratioP2;P2;SDS_P1;SDS_P2;PMS_P1;PMS_P2;Temp;Humidity;BMP_temperature;BMP_pressure;BME280_temperature;BME280_humidity;BME280_pressure;Samples;Min_cycle;Max_cycle;Signal;HPM_P1;HPM_P2
2023/10/22 00:02:11;;;;;;;2.70;1.10;;;;;;;;;;5010830;28;20440;-68
2023/10/22 00:04:39;;;;;;;4.80;1.97;;;;;;;;;;5011238;28;20451;-70
2023/10/22 00:07:06;;;;;;;2.43;1.23;;;;;;;;;;4997484;28;20618;-70
2023/10/22 00:09:32;;;;;;;2.63;1.40;;;;;;;;;;4999989;28;20866;-69
2023/10/22 00:11:59;;;;;;;3.17;1.70;;;;;;;;;;5011688;28;20498;-70
2023/10/22 00:14:27;;;;;;;4.80;1.57;;;;;;;;;;5010885;28;20449;-70
2023/10/22 00:16:54;;;;;;;2.43;1.40;;;;;;;;;;5011887;28;20546;-70
2023/10/22 00:19:22;;;;;;;4.13;1.10;;;;;;;;;;5012310;28;20467;-71
2023/10/22 00:21:49;;;;;;;2.27;1.10;;;;;;;;;;5013107;28;21032;-68
2023/10/22 00:24:16;;;;;;;2.93;1.63;;;;;;;;;;5006233;28;20437;-70
2023/10/22 00:26:43;;;;;;;4.03;1.83;;;;;;;;;;5022256;28;20490;-71
2023/10/22 00:29:10;;;;;;;3.10;1.50;;;;;;;;;;5011345;28;20849;-69
2023/10/22 00:31:38;;;;;;;2.40;1.50;;;;;;;;;;5007614;28;20950;-68
2023/10/22 00:34:05;;;;;;;1.83;0.77;;;;;;;;;;5003438;28;20519;-69
2023/10/22 00:36:34;;;;;;;4.03;1.30;;;;;;;;;;5011788;28;20475;-69
2023/10/22 00:39:01;;;;;;;2.10;1.03;;;;;;;;;;5010665;28;20452;-69
2023/10/22 00:41:30;;;;;;;2.93;1.40;;;;;;;;;;5017363;28;20907;-69
2023/10/22 00:43:57;;;;;;;2.47;1.27;;;;;;;;;;5011828;28;20470;-69
2023/10/22 00:46:26;;;;;;;1.90;1.00;;;;;;;;;;5012508;28;20890;-69
2023/10/22 00:48:55;;;;;;;2.10;1.00;;;;;;;;;;5012204;28;20451;-68
2023/10/22 00:51:22;;;;;;;2.93;1.67;;;;;;;;;;5006328;28;20460;-71
2023/10/22 00:53:53;;;;;;;2.47;1.17;;;;;;;;;;5002940;28;20816;-70
2023/10/22 00:56:22;;;;;;;2.73;1.37;;;;;;;;;;5014464;28;20478;-71
2023/10/22 00:58:50;;;;;;;2.10;1.07;;;;;;;;;;5017307;28;20463;-70
2023/10/22 01:01:18;;;;;;;2.83;1.23;;;;;;;;;;5003030;28;20816;-70
2023/10/22 01:03:45;;;;;;;3.43;1.23;;;;;;;;;;5011477;28;20519;-70
2023/10/22 01:06:12;;;;;;;2.70;1.20;;;;;;;;;;5008730;28;20574;-70
2023/10/22 01:08:39;;;;;;;1.90;1.10;;;;;;;;;;5010406;28;20880;-70
2023/10/22 01:11:10;;;;;;;3.23;1.73;;;;;;;;;;5003195;28;20463;-72
2023/10/22 01:13:37;;;;;;;4.10;0.90;;;;;;;;;;5016839;28;20590;-70
2023/10/22 01:16:05;;;;;;;2.20;1.20;;;;;;;;;;4998904;28;20468;-69
2023/10/22 01:18:32;;;;;;;2.60;1.27;;;;;;;;;;5008469;28;20463;-69
2023/10/22 01:21:00;;;;;;;2.67;1.00;;;;;;;;;;4999236;28;20452;-70
2023/10/22 01:23:28;;;;;;;4.73;1.00;;;;;;;;;;5010801;28;20439;-69
2023/10/22 01:25:56;;;;;;;1.97;0.87;;;;;;;;;;5009677;28;20463;-70
2023/10/22 01:28:23;;;;;;;2.47;1.10;;;;;;;;;;5014838;28;20502;-69
2023/10/22 01:30:50;;;;;;;4.80;1.70;;;;;;;;;;5010946;28;20440;-69
2023/10/22 01:33:17;;;;;;;2.40;1.80;;;;;;;;;;5010273;28;20874;-70
2023/10/22 01:35:44;;;;;;;2.10;1.10;;;;;;;;;;5010953;28;21032;-70
2023/10/22 01:38:13;;;;;;;2.13;1.10;;;;;;;;;;5021743;28;20459;-70
2023/10/22 01:40:41;;;;;;;2.00;0.93;;;;;;;;;;5014447;28;20443;-70
2023/10/22 01:43:08;;;;;;;3.73;1.40;;;;;;;;;;5026120;28;20502;-70
2023/10/22 01:45:35;;;;;;;2.70;1.00;;;;;;;;;;5014916;28;20466;-70
2023/10/22 01:48:02;;;;;;;2.50;1.00;;;;;;;;;;5026067;28;20518;-70
2023/10/22 01:50:30;;;;;;;2.00;0.90;;;;;;;;;;5013695;28;20452;-70
2023/10/22 01:52:57;;;;;;;1.90;1.07;;;;;;;;;;5014292;28;20501;-70
2023/10/22 01:55:24;;;;;;;3.50;1.80;;;;;;;;;;5013568;28;20456;-69
2023/10/22 01:57:52;;;;;;;2.77;1.47;;;;;;;;;;5023435;28;20483;-70
2023/10/22 02:00:20;;;;;;;2.63;1.20;;;;;;;;;;5013635;28;20515;-69
2023/10/22 02:02:47;;;;;;;3.33;1.40;;;;;;;;;;5013115;28;20447;-71
2023/10/22 02:05:15;;;;;;;2.03;1.00;;;;;;;;;;5020394;28;20538;-70
2023/10/22 02:07:42;;;;;;;2.20;0.90;;;;;;;;;;5013802;28;20471;-70
2023/10/22 02:10:09;;;;;;;1.83;0.80;;;;;;;;;;5013828;28;20915;-70
2023/10/22 02:12:36;;;;;;;2.63;1.00;;;;;;;;;;5015734;28;20471;-70
2023/10/22 02:15:06;;;;;;;1.80;0.83;;;;;;;;;;5013527;28;20467;-69
2023/10/22 02:17:35;;;;;;;3.33;0.93;;;;;;;;;;5001182;28;20898;-69
2023/10/22 02:20:03;;;;;;;2.63;1.03;;;;;;;;;;5015935;28;20439;-70
2023/10/22 02:22:30;;;;;;;2.80;1.40;;;;;;;;;;5013616;28;20900;-71
2023/10/22 02:24:57;;;;;;;2.03;0.93;;;;;;;;;;5023819;28;20509;-68
2023/10/22 02:27:24;;;;;;;3.77;0.87;;;;;;;;;;5018638;28;20458;-69
2023/10/22 02:29:51;;;;;;;2.13;1.27;;;;;;;;;;5017726;28;20772;-69
2023/10/22 02:32:20;;;;;;;2.43;0.67;;;;;;;;;;5011926;28;20452;-69
2023/10/22 02:34:47;;;;;;;2.07;1.00;;;;;;;;;;5010829;28;20586;-70
2023/10/22 02:37:14;;;;;;;2.30;1.10;;;;;;;;;;5014120;28;20463;-70
2023/10/22 02:39:41;;;;;;;1.60;0.80;;;;;;;;;;5013143;28;20452;-70
2023/10/22 02:42:08;;;;;;;1.70;0.70;;;;;;;;;;5017942;28;20459;-69
2023/10/22 02:44:36;;;;;;;1.97;0.80;;;;;;;;;;5017705;28;20459;-71
2023/10/22 02:47:03;;;;;;;2.73;0.80;;;;;;;;;;5012771;28;20467;-70
2023/10/22 02:49:32;;;;;;;2.33;1.43;;;;;;;;;;5012894;28;20452;-70
2023/10/22 02:51:59;;;;;;;6.53;1.03;;;;;;;;;;5014326;28;20463;-70
2023/10/22 02:54:26;;;;;;;2.10;1.20;;;;;;;;;;5013513;28;21001;-70
2023/10/22 02:56:54;;;;;;;2.33;0.70;;;;;;;;;;5020077;28;20848;-70
2023/10/22 02:59:22;;;;;;;2.27;0.90;;;;;;;;;;5015464;28;20444;-70
2023/10/22 03:01:49;;;;;;;2.50;1.03;;;;;;;;;;5013304;28;20443;-70
2023/10/22 03:04:16;;;;;;;3.03;1.20;;;;;;;;;;5013178;28;20494;-70
2023/10/22 03:06:44;;;;;;;4.73;1.00;;;;;;;;;;5010383;28;20603;-70
2023/10/22 03:09:13;;;;;;;1.90;0.90;;;;;;;;;;5023662;28;20475;-70
2023/10/22 03:11:41;;;;;;;2.33;1.10;;;;;;;;;;5019084;28;20466;-70
2023/10/22 03:14:08;;;;;;;1.80;0.80;;;;;;;;;;5016174;28;20811;-71
2023/10/22 03:16:35;;;;;;;2.43;1.03;;;;;;;;;;5005654;28;20467;-71
2023/10/22 03:19:03;;;;;;;2.03;0.77;;;;;;;;;;5015726;28;20460;-70
2023/10/22 03:21:35;;;;;;;2.20;1.03;;;;;;;;;;5021705;28;20542;-70
2023/10/22 03:24:03;;;;;;;1.70;0.70;;;;;;;;;;5001324;28;20432;-70
2023/10/22 03:26:31;;;;;;;2.10;0.80;;;;;;;;;;5015415;28;20557;-69
2023/10/22 03:28:58;;;;;;;3.23;1.50;;;;;;;;;;5012247;28;20444;-69
2023/10/22 03:31:25;;;;;;;3.03;1.13;;;;;;;;;;5018898;28;20957;-68
2023/10/22 03:33:52;;;;;;;2.13;0.90;;;;;;;;;;5011671;28;20492;-70
2023/10/22 03:36:20;;;;;;;1.90;0.90;;;;;;;;;;5011953;28;20471;-70
2023/10/22 03:38:47;;;;;;;2.50;1.00;;;;;;;;;;5012663;28;20487;-69
2023/10/22 03:41:18;;;;;;;1.60;0.60;;;;;;;;;;5018065;28;20850;-70
2023/10/22 03:43:45;;;;;;;3.83;0.87;;;;;;;;;;5012359;28;20433;-70
2023/10/22 03:46:12;;;;;;;2.03;1.10;;;;;;;;;;5015738;28;20838;-68
2023/10/22 03:48:39;;;;;;;2.33;1.00;;;;;;;;;;5009663;28;20817;-70
2023/10/22 03:51:06;;;;;;;1.90;0.83;;;;;;;;;;5009214;28;20464;-69
2023/10/22 03:53:33;;;;;;;2.00;0.90;;;;;;;;;;5019380;28;20512;-70
2023/10/22 03:56:01;;;;;;;2.63;1.43;;;;;;;;;;5012645;28;20485;-70
2023/10/22 03:58:29;;;;;;;2.63;1.00;;;;;;;;;;5011069;28;20448;-70
2023/10/22 04:00:57;;;;;;;2.53;0.80;;;;;;;;;;5010758;28;20464;-69
2023/10/22 04:03:24;;;;;;;1.70;0.73;;;;;;;;;;5012060;28;20439;-68
2023/10/22 04:05:57;;;;;;;2.77;1.00;;;;;;;;;;5010908;28;20490;-70
2023/10/22 04:08:24;;;;;;;2.77;1.20;;;;;;;;;;5011508;28;20436;-69
2023/10/22 04:10:51;;;;;;;2.17;1.20;;;;;;;;;;5014015;28;20808;-69
2023/10/22 04:13:18;;;;;;;4.37;1.30;;;;;;;;;;5019771;28;20448;-68
2023/10/22 04:15:48;;;;;;;3.97;1.57;;;;;;;;;;5010822;28;20452;-69
2023/10/22 04:18:15;;;;;;;1.93;0.90;;;;;;;;;;5011952;28;20448;-69
2023/10/22 04:20:42;;;;;;;2.00;0.77;;;;;;;;;;5011883;28;20882;-69
2023/10/22 04:23:09;;;;;;;2.67;1.10;;;;;;;;;;5007250;28;20439;-69
2023/10/22 04:25:39;;;;;;;2.13;1.07;;;;;;;;;;5013640;28;20483;-68
2023/10/22 04:28:06;;;;;;;2.37;0.77;;;;;;;;;;5011220;28;20503;-69
2023/10/22 04:30:33;;;;;;;2.20;1.13;;;;;;;;;;5009516;28;20956;-69
2023/10/22 04:33:02;;;;;;;2.10;0.93;;;;;;;;;;5011574;28;20436;-69
2023/10/22 04:35:29;;;;;;;3.70;1.30;;;;;;;;;;5010560;28;20562;-70
2023/10/22 04:37:56;;;;;;;2.20;0.90;;;;;;;;;;5010471;28;20790;-70
2023/10/22 04:40:26;;;;;;;2.70;1.20;;;;;;;;;;4998279;28;21256;-70
2023/10/22 04:42:56;;;;;;;2.10;0.73;;;;;;;;;;5006331;28;20447;-68
2023/10/22 04:45:23;;;;;;;2.33;1.30;;;;;;;;;;5011055;28;20470;-70
2023/10/22 04:47:53;;;;;;;2.30;0.77;;;;;;;;;;5010449;28;20977;-70
2023/10/22 04:50:24;;;;;;;1.80;0.60;;;;;;;;;;4992209;28;20467;-70
2023/10/22 04:52:51;;;;;;;1.80;0.70;;;;;;;;;;5011218;28;20522;-70
2023/10/22 04:55:18;;;;;;;3.70;1.20;;;;;;;;;;5013722;28;20505;-70
2023/10/22 04:57:45;;;;;;;2.00;0.90;;;;;;;;;;5014534;28;20452;-70
2023/10/22 05:00:13;;;;;;;2.37;1.13;;;;;;;;;;5020590;28;20456;-69
2023/10/22 05:02:40;;;;;;;1.80;0.70;;;;;;;;;;5010700;28;20440;-70
2023/10/22 05:05:07;;;;;;;1.70;0.83;;;;;;;;;;5010867;28;20487;-71
2023/10/22 05:07:35;;;;;;;2.67;1.37;;;;;;;;;;5009678;28;20466;-69
2023/10/22 05:10:02;;;;;;;2.90;1.10;;;;;;;;;;5000887;28;20875;-69
2023/10/22 05:12:30;;;;;;;2.10;1.00;;;;;;;;;;5015812;28;20549;-70
2023/10/22 05:14:57;;;;;;;2.23;0.97;;;;;;;;;;5015016;28;20899;-69
2023/10/22 05:17:24;;;;;;;3.30;1.00;;;;;;;;;;5020504;28;20455;-70
2023/10/22 05:19:52;;;;;;;2.77;1.03;;;;;;;;;;5014403;28;20907;-70
2023/10/22 05:22:19;;;;;;;2.30;1.00;;;;;;;;;;5009713;28;20557;-69
2023/10/22 05:24:48;;;;;;;2.00;0.80;;;;;;;;;;5011561;28;20890;-69
2023/10/22 05:27:15;;;;;;;1.97;0.90;;;;;;;;;;5005962;28;20933;-70
2023/10/22 05:29:43;;;;;;;2.27;1.00;;;;;;;;;;5011687;28;20460;-69
2023/10/22 05:32:10;;;;;;;1.60;0.70;;;;;;;;;;5008536;28;20448;-69
2023/10/22 05:34:37;;;;;;;3.43;0.87;;;;;;;;;;5017111;28;20482;-68
2023/10/22 05:37:05;;;;;;;1.73;0.73;;;;;;;;;;5020755;28;20497;-67
2023/10/22 05:39:32;;;;;;;1.73;0.73;;;;;;;;;;5026437;28;20940;-67
2023/10/22 05:42:00;;;;;;;2.23;0.70;;;;;;;;;;5015013;28;20555;-67
2023/10/22 05:44:27;;;;;;;2.00;0.90;;;;;;;;;;5011721;28;20487;-67
2023/10/22 05:46:54;;;;;;;4.53;1.33;;;;;;;;;;5003100;28;20823;-67
2023/10/22 05:49:22;;;;;;;1.70;0.70;;;;;;;;;;5014464;28;20440;-67
2023/10/22 05:51:50;;;;;;;2.17;1.03;;;;;;;;;;5016370;28;20447;-67
2023/10/22 05:54:18;;;;;;;1.80;0.73;;;;;;;;;;5017581;28;20471;-66
2023/10/22 05:56:45;;;;;;;1.93;0.80;;;;;;;;;;5009675;28;20460;-66
2023/10/22 05:59:13;;;;;;;3.73;1.20;;;;;;;;;;5014212;28;20451;-66
2023/10/22 06:01:41;;;;;;;1.77;0.70;;;;;;;;;;5013995;28;20448;-66
2023/10/22 06:04:08;;;;;;;1.80;0.87;;;;;;;;;;5012711;28;20451;-66
2023/10/22 06:06:36;;;;;;;3.50;1.30;;;;;;;;;;5004354;28;20476;-67
2023/10/22 06:09:03;;;;;;;2.30;0.90;;;;;;;;;;5011441;28;20455;-66
2023/10/22 06:11:31;;;;;;;1.90;0.60;;;;;;;;;;5021228;28;20459;-66
2023/10/22 06:13:58;;;;;;;1.83;0.77;;;;;;;;;;5013025;28;20939;-64
2023/10/22 06:16:26;;;;;;;1.83;0.80;;;;;;;;;;5020687;28;20468;-66
2023/10/22 06:18:53;;;;;;;2.10;1.00;;;;;;;;;;5014077;28;20455;-66
2023/10/22 06:21:20;;;;;;;1.63;0.70;;;;;;;;;;5012506;28;20957;-67
2023/10/22 06:23:47;;;;;;;1.60;0.50;;;;;;;;;;5015268;28;20448;-67
2023/10/22 06:26:14;;;;;;;2.43;0.60;;;;;;;;;;5024150;28;21317;-66
2023/10/22 06:28:44;;;;;;;4.07;1.17;;;;;;;;;;5016106;28;20444;-68
2023/10/22 06:31:12;;;;;;;1.73;0.70;;;;;;;;;;5014852;28;20467;-68
2023/10/22 06:33:41;;;;;;;1.80;0.70;;;;;;;;;;5008009;28;20449;-67
2023/10/22 06:36:12;;;;;;;1.60;0.60;;;;;;;;;;5015714;28;20912;-67
2023/10/22 06:38:39;;;;;;;5.27;0.80;;;;;;;;;;5014082;28;20436;-67
2023/10/22 06:41:06;;;;;;;2.43;1.20;;;;;;;;;;5012519;28;20470;-66
2023/10/22 06:43:34;;;;;;;1.70;0.70;;;;;;;;;;5013330;28;20934;-66
2023/10/22 06:46:01;;;;;;;4.10;1.00;;;;;;;;;;5013081;28;20480;-67
2023/10/22 06:48:29;;;;;;;1.80;0.83;;;;;;;;;;5012825;28;20436;-67
2023/10/22 06:50:58;;;;;;;4.33;1.27;;;;;;;;;;5012332;28;20869;-66
2023/10/22 06:53:25;;;;;;;2.17;1.20;;;;;;;;;;5001057;28;20456;-66
2023/10/22 06:55:52;;;;;;;2.07;1.20;;;;;;;;;;5022546;28;20490;-66
2023/10/22 06:58:19;;;;;;;2.73;0.97;;;;;;;;;;5020910;28;20464;-67
2023/10/22 07:00:46;;;;;;;2.63;0.87;;;;;;;;;;5013410;28;20448;-68
2023/10/22 07:03:13;;;;;;;2.30;0.90;;;;;;;;;;5021321;28;20471;-66
2023/10/22 07:05:40;;;;;;;3.60;1.00;;;;;;;;;;5034997;23;20538;-66
2023/10/22 07:08:08;;;;;;;3.17;1.10;;;;;;;;;;5001535;28;20460;-67
2023/10/22 07:10:35;;;;;;;2.27;0.87;;;;;;;;;;5006055;28;20456;-67
2023/10/22 07:13:02;;;;;;;3.17;1.03;;;;;;;;;;5002230;28;20436;-66
2023/10/22 07:15:29;;;;;;;2.00;0.70;;;;;;;;;;5007298;28;20902;-66
2023/10/22 07:17:56;;;;;;;2.93;1.00;;;;;;;;;;4997012;28;20460;-66
2023/10/22 07:20:25;;;;;;;2.30;0.73;;;;;;;;;;5006304;28;20457;-67
2023/10/22 07:22:52;;;;;;;1.60;0.60;;;;;;;;;;5003729;28;20566;-66
2023/10/22 07:25:21;;;;;;;2.17;0.80;;;;;;;;;;5008571;28;20479;-67
2023/10/22 07:27:49;;;;;;;1.60;0.53;;;;;;;;;;4994260;28;20456;-67
2023/10/22 07:30:16;;;;;;;3.03;0.87;;;;;;;;;;5005788;28;20492;-66
2023/10/22 07:32:44;;;;;;;2.27;0.93;;;;;;;;;;4993302;28;20445;-66
2023/10/22 07:35:14;;;;;;;1.70;0.70;;;;;;;;;;4999927;28;20488;-67
2023/10/22 07:37:44;;;;;;;2.73;1.10;;;;;;;;;;5000976;28;20542;-66
2023/10/22 07:40:12;;;;;;;1.70;0.70;;;;;;;;;;5010867;28;20555;-68
2023/10/22 07:42:41;;;;;;;1.90;0.60;;;;;;;;;;5006185;28;20440;-67
2023/10/22 07:45:09;;;;;;;1.57;0.57;;;;;;;;;;5003852;28;20809;-67
2023/10/22 07:47:36;;;;;;;1.50;0.50;;;;;;;;;;5011832;28;20447;-67
2023/10/22 07:50:03;;;;;;;2.63;0.90;;;;;;;;;;4998729;28;20480;-67
2023/10/22 07:52:30;;;;;;;1.70;0.60;;;;;;;;;;5009899;28;20992;-68
2023/10/22 07:55:00;;;;;;;2.40;0.70;;;;;;;;;;4999057;28;20473;-66
2023/10/22 07:57:27;;;;;;;1.70;0.60;;;;;;;;;;4998229;28;20519;-66
2023/10/22 07:59:57;;;;;;;2.03;0.60;;;;;;;;;;5006897;28;20497;-67
2023/10/22 08:02:24;;;;;;;1.63;0.73;;;;;;;;;;4996178;28;20449;-67
2023/10/22 08:04:51;;;;;;;1.63;0.50;;;;;;;;;;5002862;28;20449;-67
2023/10/22 08:07:19;;;;;;;1.70;0.60;;;;;;;;;;4998158;28;20452;-65
2023/10/22 08:09:46;;;;;;;2.40;0.90;;;;;;;;;;5002852;28;20456;-66
2023/10/22 08:12:13;;;;;;;2.20;0.73;;;;;;;;;;5004397;28;20461;-66
2023/10/22 08:14:40;;;;;;;2.63;1.10;;;;;;;;;;5001671;28;20821;-67
2023/10/22 08:17:08;;;;;;;2.97;1.13;;;;;;;;;;5005047;28;20463;-67
2023/10/22 08:19:35;;;;;;;2.53;0.70;;;;;;;;;;5001785;28;20519;-67
2023/10/22 08:22:02;;;;;;;4.17;0.77;;;;;;;;;;4999273;28;20551;-67
2023/10/22 08:24:30;;;;;;;3.33;0.60;;;;;;;;;;5007598;28;20444;-67
2023/10/22 08:27:01;;;;;;;2.00;0.60;;;;;;;;;;5001577;28;20485;-66
2023/10/22 08:29:28;;;;;;;6.83;0.90;;;;;;;;;;5003124;28;20510;-66
2023/10/22 08:31:55;;;;;;;1.73;0.50;;;;;;;;;;4999048;28;20444;-68
2023/10/22 08:34:24;;;;;;;2.33;0.70;;;;;;;;;;5005753;28;20437;-67
2023/10/22 08:36:51;;;;;;;1.50;0.50;;;;;;;;;;5003784;28;20488;-66
2023/10/22 08:39:18;;;;;;;1.50;0.50;;;;;;;;;;4999953;28;20444;-67
2023/10/22 08:41:49;;;;;;;3.43;0.90;;;;;;;;;;5001521;28;20468;-66
2023/10/22 08:44:16;;;;;;;1.50;0.50;;;;;;;;;;4997936;28;20820;-66
2023/10/22 08:46:43;;;;;;;2.57;0.80;;;;;;;;;;5000832;28;20819;-72
2023/10/22 08:49:12;;;;;;;3.00;1.37;;;;;;;;;;5012238;28;20468;-67
2023/10/22 08:51:40;;;;;;;1.87;0.60;;;;;;;;;;5006775;28;20981;-67
2023/10/22 08:54:10;;;;;;;4.20;1.07;;;;;;;;;;5007529;28;20440;-67
2023/10/22 08:56:37;;;;;;;2.33;0.70;;;;;;;;;;5002457;28;20488;-68
2023/10/22 08:59:05;;;;;;;3.63;0.97;;;;;;;;;;4993632;28;20776;-67
2023/10/22 09:01:33;;;;;;;1.70;0.70;;;;;;;;;;4997653;28;20468;-67
2023/10/22 09:04:00;;;;;;;1.70;0.80;;;;;;;;;;5007160;28;20870;-67
2023/10/22 09:06:27;;;;;;;2.27;0.80;;;;;;;;;;4997657;28;20468;-68
2023/10/22 09:08:56;;;;;;;3.20;1.07;;;;;;;;;;5005961;28;20447;-66
2023/10/22 09:11:24;;;;;;;5.50;0.90;;;;;;;;;;4993536;28;20460;-67
2023/10/22 09:13:51;;;;;;;1.87;0.60;;;;;;;;;;4997140;28;21003;-67
2023/10/22 09:16:30;;;;;;;2.13;0.93;;;;;;;;;;5007258;28;20838;-68
2023/10/22 09:18:58;;;;;;;1.90;0.70;;;;;;;;;;4995866;28;20432;-67
2023/10/22 09:21:26;;;;;;;3.00;0.60;;;;;;;;;;4999093;28;20519;-67
2023/10/22 09:24:07;;;;;;;1.80;0.83;;;;;;;;;;5006804;28;20457;-68
2023/10/22 09:26:43;;;;;;;1.90;0.83;;;;;;;;;;5004580;28;20488;-68
2023/10/22 09:29:10;;;;;;;2.00;0.63;;;;;;;;;;4994209;28;20912;-67
2023/10/22 09:31:38;;;;;;;1.70;0.83;;;;;;;;;;5001392;28;20522;-67
2023/10/22 09:34:05;;;;;;;3.17;0.90;;;;;;;;;;5002071;28;20449;-67
2023/10/22 09:36:32;;;;;;;3.20;0.80;;;;;;;;;;5000396;28;20824;-68
2023/10/22 09:38:59;;;;;;;2.73;0.60;;;;;;;;;;5004753;28;20436;-67
2023/10/22 09:41:29;;;;;;;1.40;0.50;;;;;;;;;;5008030;28;20469;-67
2023/10/22 09:43:57;;;;;;;2.27;0.70;;;;;;;;;;5001185;28;20448;-67
2023/10/22 09:46:25;;;;;;;3.50;0.87;;;;;;;;;;4998337;28;20863;-68
2023/10/22 09:48:52;;;;;;;2.50;0.87;;;;;;;;;;4992371;28;20437;-66
2023/10/22 09:51:19;;;;;;;2.77;0.90;;;;;;;;;;5004524;28;20805;-68
2023/10/22 09:53:47;;;;;;;1.80;0.70;;;;;;;;;;4998845;28;20448;-67
2023/10/22 09:56:19;;;;;;;2.73;0.70;;;;;;;;;;5004188;28;20489;-67
2023/10/22 09:58:49;;;;;;;2.20;0.83;;;;;;;;;;4998567;28;20460;-67
2023/10/22 10:01:16;;;;;;;2.17;0.90;;;;;;;;;;5002723;28;20475;-66
2023/10/22 10:03:44;;;;;;;2.10;0.70;;;;;;;;;;4998966;28;20452;-69
2023/10/22 10:06:11;;;;;;;1.60;0.60;;;;;;;;;;5006601;28;20472;-68
2023/10/22 10:08:39;;;;;;;2.07;0.87;;;;;;;;;;4996460;28;21185;-67
2023/10/22 10:11:06;;;;;;;4.03;1.03;;;;;;;;;;5003906;28;20552;-67
2023/10/22 10:13:35;;;;;;;2.90;0.83;;;;;;;;;;5006381;28;20448;-67
2023/10/22 10:16:04;;;;;;;1.87;0.70;;;;;;;;;;5003341;28;20495;-67
2023/10/22 10:18:49;;;;;;;1.57;0.60;;;;;;;;;;5008087;28;20651;-67
2023/10/22 10:21:36;;;;;;;1.60;0.60;;;;;;;;;;4999164;28;21014;-67
2023/10/22 10:24:19;;;;;;;2.80;1.33;;;;;;;;;;5008014;28;20539;-66
2023/10/22 10:26:47;;;;;;;1.57;0.60;;;;;;;;;;5000243;28;20468;-66
2023/10/22 10:29:15;;;;;;;1.60;0.70;;;;;;;;;;4998238;28;21160;-68
2023/10/22 10:31:47;;;;;;;1.70;0.90;;;;;;;;;;4998652;28;20488;-69
2023/10/22 10:34:22;;;;;;;3.00;0.80;;;;;;;;;;5001920;28;20472;-67
2023/10/22 10:36:50;;;;;;;3.00;0.90;;;;;;;;;;5008266;28;20519;-66
2023/10/22 10:39:35;;;;;;;1.70;0.70;;;;;;;;;;5006399;28;20449;-68
2023/10/22 10:42:02;;;;;;;1.70;0.90;;;;;;;;;;5001970;28;20444;-68
2023/10/22 10:44:30;;;;;;;2.70;0.90;;;;;;;;;;5002381;28;20444;-67
2023/10/22 10:47:18;;;;;;;2.00;0.70;;;;;;;;;;4995164;28;20753;-66
2023/10/22 10:49:56;;;;;;;1.80;0.70;;;;;;;;;;4997462;28;20480;-67
2023/10/22 10:52:23;;;;;;;3.10;0.80;;;;;;;;;;5000578;28;20460;-66
2023/10/22 10:54:59;;;;;;;2.00;0.60;;;;;;;;;;5011726;28;20467;-67
2023/10/22 10:57:34;;;;;;;2.47;1.07;;;;;;;;;;5006324;28;20965;-68
2023/10/22 11:00:01;;;;;;;2.33;0.87;;;;;;;;;;4995854;28;20436;-69
2023/10/22 11:02:30;;;;;;;2.60;0.50;;;;;;;;;;4997536;28;20444;-68
2023/10/22 11:04:57;;;;;;;2.10;0.60;;;;;;;;;;4999055;28;20484;-68
2023/10/22 11:07:27;;;;;;;4.27;0.87;;;;;;;;;;4995995;28;20453;-67
2023/10/22 11:09:54;;;;;;;1.30;0.40;;;;;;;;;;5004061;28;20460;-68
2023/10/22 11:12:22;;;;;;;4.50;1.27;;;;;;;;;;5002405;28;20472;-66
2023/10/22 11:14:55;;;;;;;2.07;0.90;;;;;;;;;;4994952;28;20540;-69
2023/10/22 11:17:22;;;;;;;2.37;0.67;;;;;;;;;;4993658;28;20507;-69
2023/10/22 11:19:52;;;;;;;3.30;0.67;;;;;;;;;;5010440;28;20982;-66
2023/10/22 11:22:20;;;;;;;8.33;1.07;;;;;;;;;;5000348;28;20503;-68
2023/10/22 11:24:47;;;;;;;2.23;0.77;;;;;;;;;;5006869;28;20460;-66
2023/10/22 11:27:14;;;;;;;1.40;0.60;;;;;;;;;;5011119;28;20456;-68
2023/10/22 11:29:41;;;;;;;1.83;0.73;;;;;;;;;;5005127;28;20433;-69
2023/10/22 11:32:12;;;;;;;2.20;0.70;;;;;;;;;;4995196;28;20959;-67
2023/10/22 11:34:48;;;;;;;2.80;0.90;;;;;;;;;;4997824;28;20459;-69
2023/10/22 11:37:19;;;;;;;1.80;0.70;;;;;;;;;;5006200;28;20472;-68
2023/10/22 11:39:46;;;;;;;1.60;0.60;;;;;;;;;;4998499;28;20444;-68
2023/10/22 11:42:13;;;;;;;3.27;1.20;;;;;;;;;;5005812;28;20461;-68
2023/10/22 11:44:44;;;;;;;1.80;0.60;;;;;;;;;;5009159;28;20523;-68
2023/10/22 11:47:26;;;;;;;1.80;0.60;;;;;;;;;;5008875;28;20818;-68
2023/10/22 11:49:53;;;;;;;2.10;0.67;;;;;;;;;;4994309;28;20480;-68
2023/10/22 11:52:36;;;;;;;2.30;0.70;;;;;;;;;;5002919;28;20504;-67
2023/10/22 11:55:06;;;;;;;1.63;0.50;;;;;;;;;;5003133;28;20484;-68
2023/10/22 11:57:33;;;;;;;1.50;0.50;;;;;;;;;;4991855;28;20857;-68
2023/10/22 12:00:00;;;;;;;2.53;0.80;;;;;;;;;;5002572;28;20456;-67
2023/10/22 12:02:27;;;;;;;4.50;1.00;;;;;;;;;;5003203;28;20464;-67
2023/10/22 12:04:54;;;;;;;2.37;0.60;;;;;;;;;;4999735;28;20542;-68
2023/10/22 12:07:21;;;;;;;2.17;0.70;;;;;;;;;;4999491;28;20532;-67
2023/10/22 12:09:48;;;;;;;4.30;0.93;;;;;;;;;;4998394;28;20441;-67
2023/10/22 12:12:16;;;;;;;6.20;2.93;;;;;;;;;;4999111;28;20465;-67
2023/10/22 12:14:43;;;;;;;1.60;0.60;;;;;;;;;;4998459;28;20855;-66
2023/10/22 12:17:10;;;;;;;2.00;0.83;;;;;;;;;;4998453;28;20527;-66
2023/10/22 12:19:38;;;;;;;1.40;0.60;;;;;;;;;;5003523;28;20447;-66
2023/10/22 12:22:05;;;;;;;1.80;0.67;;;;;;;;;;4999497;28;20457;-66
2023/10/22 12:24:32;;;;;;;2.50;1.00;;;;;;;;;;5006003;28;20536;-67
2023/10/22 12:26:59;;;;;;;2.37;1.20;;;;;;;;;;5000641;28;20483;-67
2023/10/22 12:29:28;;;;;;;1.87;0.70;;;;;;;;;;5001269;28;20447;-67
2023/10/22 12:31:55;;;;;;;2.10;0.93;;;;;;;;;;4993671;28;20457;-67
2023/10/22 12:34:22;;;;;;;1.40;0.50;;;;;;;;;;4994726;28;20497;-68
2023/10/22 12:36:49;;;;;;;1.53;0.67;;;;;;;;;;4995448;28;20480;-67
2023/10/22 12:39:16;;;;;;;3.13;1.03;;;;;;;;;;5005275;28;20452;-68
2023/10/22 12:41:43;;;;;;;1.70;0.93;;;;;;;;;;5002786;28;20456;-67
2023/10/22 12:44:10;;;;;;;1.63;0.67;;;;;;;;;;4994793;28;20922;-68
2023/10/22 12:46:38;;;;;;;7.27;0.77;;;;;;;;;;5003431;28;20468;-67
2023/10/22 12:49:05;;;;;;;1.40;0.70;;;;;;;;;;4998350;28;20444;-66
2023/10/22 12:51:32;;;;;;;2.10;0.67;;;;;;;;;;5002973;28;20457;-66
2023/10/22 12:53:59;;;;;;;1.60;0.60;;;;;;;;;;4997561;28;20444;-67
2023/10/22 12:56:26;;;;;;;3.27;0.70;;;;;;;;;;5001327;28;20506;-67
2023/10/22 12:58:55;;;;;;;1.87;0.87;;;;;;;;;;4995527;28;20452;-66
2023/10/22 13:01:22;;;;;;;5.43;0.90;;;;;;;;;;5003646;28;20488;-66
2023/10/22 13:03:51;;;;;;;2.13;0.60;;;;;;;;;;5001816;28;20548;-66
2023/10/22 13:06:18;;;;;;;1.47;0.57;;;;;;;;;;5040445;23;20491;-66
2023/10/22 13:08:45;;;;;;;4.80;1.53;;;;;;;;;;5000497;28;20451;-65
2023/10/22 13:11:17;;;;;;;1.87;0.67;;;;;;;;;;5007535;28;20463;-66
2023/10/22 13:13:44;;;;;;;2.30;0.90;;;;;;;;;;4997870;28;20444;-66
2023/10/22 13:16:11;;;;;;;1.57;0.60;;;;;;;;;;5004656;28;20468;-66
2023/10/22 13:18:40;;;;;;;1.90;0.67;;;;;;;;;;5007642;28;20805;-66
2023/10/22 13:21:08;;;;;;;1.63;0.63;;;;;;;;;;4996022;28;20529;-66
2023/10/22 13:23:35;;;;;;;2.47;0.87;;;;;;;;;;4997897;28;20448;-65
2023/10/22 13:26:02;;;;;;;1.50;0.50;;;;;;;;;;5009277;28;20476;-66
2023/10/22 13:28:30;;;;;;;1.50;0.50;;;;;;;;;;5010252;28;20459;-67
2023/10/22 13:30:57;;;;;;;3.80;0.93;;;;;;;;;;5011217;28;20440;-65
2023/10/22 13:33:24;;;;;;;2.23;0.60;;;;;;;;;;5009421;28;20835;-65
2023/10/22 13:35:51;;;;;;;2.93;0.97;;;;;;;;;;5011833;28;20463;-66
2023/10/22 13:38:19;;;;;;;2.40;0.90;;;;;;;;;;5001981;28;20494;-66
2023/10/22 13:40:46;;;;;;;1.60;0.73;;;;;;;;;;5014468;28;20447;-66
2023/10/22 13:43:13;;;;;;;3.23;1.23;;;;;;;;;;5001576;28;20462;-66
2023/10/22 13:45:41;;;;;;;1.40;0.50;;;;;;;;;;4998616;28;20465;-66
2023/10/22 13:48:08;;;;;;;3.10;0.60;;;;;;;;;;5008435;28;20437;-65
2023/10/22 13:50:37;;;;;;;3.30;1.10;;;;;;;;;;5003725;28;20459;-65
2023/10/22 13:53:04;;;;;;;7.00;0.70;;;;;;;;;;5007208;28;20465;-66
2023/10/22 13:55:33;;;;;;;2.47;0.70;;;;;;;;;;5005202;28;20566;-65
2023/10/22 13:58:00;;;;;;;2.13;1.00;;;;;;;;;;5005078;28;20476;-65
2023/10/22 14:00:27;;;;;;;1.73;0.57;;;;;;;;;;5007727;28;20470;-66
2023/10/22 14:02:54;;;;;;;1.40;0.70;;;;;;;;;;5009719;28;20498;-65
2023/10/22 14:05:21;;;;;;;1.77;0.83;;;;;;;;;;4997376;28;20480;-66
2023/10/22 14:07:49;;;;;;;1.90;0.70;;;;;;;;;;5006905;28;20545;-66
2023/10/22 14:10:16;;;;;;;3.00;0.67;;;;;;;;;;4997901;28;20927;-66
2023/10/22 14:12:46;;;;;;;1.53;0.80;;;;;;;;;;5010726;28;20452;-65
2023/10/22 14:15:18;;;;;;;2.47;1.10;;;;;;;;;;4997947;28;20567;-65
2023/10/22 14:17:45;;;;;;;2.73;0.70;;;;;;;;;;5002965;28;20552;-65
2023/10/22 14:20:13;;;;;;;2.40;0.80;;;;;;;;;;5013168;28;20456;-65
2023/10/22 14:22:40;;;;;;;3.50;0.70;;;;;;;;;;5009311;28;20471;-66
2023/10/22 14:25:07;;;;;;;2.37;0.80;;;;;;;;;;4998387;28;20480;-65
2023/10/22 14:27:34;;;;;;;1.60;0.70;;;;;;;;;;5008689;28;20464;-66
2023/10/22 14:30:03;;;;;;;1.40;0.60;;;;;;;;;;5004642;28;20456;-68
2023/10/22 14:32:30;;;;;;;3.13;0.50;;;;;;;;;;5000845;28;20456;-66
2023/10/22 14:34:58;;;;;;;2.07;0.60;;;;;;;;;;5000604;28;20445;-65
2023/10/22 14:37:25;;;;;;;1.70;0.60;;;;;;;;;;5007708;28;20484;-65
2023/10/22 14:39:52;;;;;;;4.40;0.70;;;;;;;;;;5004865;28;20451;-66
2023/10/22 14:42:19;;;;;;;3.80;0.80;;;;;;;;;;5011920;28;20460;-66
2023/10/22 14:44:46;;;;;;;1.57;0.60;;;;;;;;;;5007490;28;20449;-66
2023/10/22 14:47:14;;;;;;;1.60;0.50;;;;;;;;;;5008917;28;20440;-66
2023/10/22 14:49:42;;;;;;;4.97;1.30;;;;;;;;;;5005962;28;20470;-66